createdAt,value
2023-06-16T00:04:38.791Z,50.6
2023-06-16T00:09:07.006Z,50.7
2023-06-16T00:14:13.417Z,51.1
2023-06-16T00:19:39.950Z,51.0
2023-06-16T00:29:32.684Z,51.5
2023-06-16T00:34:39.057Z,51.6
2023-06-16T00:40:05.622Z,51.6
2023-06-16T00:44:52.034Z,51.9
2023-06-16T00:50:02.441Z,52.0
2023-06-16T00:55:04.813Z,52.3
2023-06-16T01:00:01.200Z,52.6
2023-06-16T01:06:22.649Z,52.4
2023-06-16T01:15:20.501Z,52.8
2023-06-16T01:20:40.866Z,53.0
2023-06-16T01:25:43.450Z,53.3
2023-06-16T01:41:02.577Z,53.5
2023-06-16T01:46:33.115Z,53.5
2023-06-16T01:51:15.334Z,53.6
2023-06-16T01:56:41.892Z,53.7
2023-06-16T02:01:28.251Z,54.1
2023-06-16T02:06:34.755Z,53.9
2023-06-16T02:16:46.637Z,54.5
2023-06-16T02:21:54.133Z,54.4
2023-06-16T02:32:06.859Z,54.3
2023-06-16T02:37:13.266Z,54.7
2023-06-16T02:42:19.766Z,54.8
2023-06-16T02:47:26.179Z,55.0
2023-06-16T02:52:32.556Z,55.0
2023-06-16T02:58:35.023Z,55.2
2023-06-16T03:03:29.431Z,55.3
2023-06-16T03:12:58.041Z,55.3
2023-06-16T03:18:04.475Z,55.5
2023-06-16T03:23:10.827Z,55.6
2023-06-16T03:28:17.202Z,55.7
2023-06-16T03:33:23.674Z,55.5
2023-06-16T03:38:34.132Z,56.0
2023-06-16T03:43:36.469Z,55.9
2023-06-16T03:59:59.802Z,55.2
2023-06-16T04:05:11.139Z,55.2
2023-06-16T04:10:17.927Z,55.2
2023-06-16T04:15:20.117Z,55.4
2023-06-16T04:20:30.573Z,55.6
2023-06-16T04:25:32.372Z,55.5
2023-06-16T04:30:39.744Z,55.4
2023-06-16T04:36:56.284Z,55.2
2023-06-16T04:45:18.573Z,55.3
2023-06-16T04:50:27.496Z,54.3
2023-06-16T04:56:44.012Z,54.1
2023-06-16T05:00:40.273Z,53.8
2023-06-16T05:05:46.653Z,54.1
2023-06-16T05:10:53.013Z,54.0
2023-06-16T05:16:19.504Z,53.9
2023-06-16T05:21:25.834Z,54.2
2023-06-16T05:26:36.203Z,54.3
2023-06-16T05:31:57.665Z,54.5
2023-06-16T05:36:23.939Z,54.3
2023-06-16T05:41:21.453Z,53.8
2023-06-16T05:46:27.826Z,53.7
2023-06-16T05:51:44.333Z,53.7
2023-06-16T05:56:50.675Z,53.7
2023-06-16T06:01:57.066Z,54.1
2023-06-16T06:07:05.103Z,54.3
2023-06-16T06:12:01.398Z,54.2
2023-06-16T06:17:17.820Z,54.1
2023-06-16T06:22:24.261Z,54.2
2023-06-16T06:27:29.608Z,54.6
2023-06-16T06:32:37.035Z,55.7
2023-06-16T06:37:33.373Z,54.9
2023-06-16T06:42:49.867Z,55.0
2023-06-16T06:47:56.389Z,55.0
2023-06-16T06:53:02.895Z,55.0
2023-06-16T06:58:09.248Z,55.8
2023-06-16T07:08:22.015Z,55.4
2023-06-16T07:13:28.356Z,55.5
2023-06-16T07:18:34.748Z,55.4
2023-06-16T07:23:41.180Z,56.1
2023-06-16T07:28:47.503Z,56.0
2023-06-16T07:33:43.868Z,55.3
2023-06-16T07:39:00.281Z,54.0
2023-06-16T07:44:06.643Z,52.9
2023-06-16T07:49:03.041Z,52.2
2023-06-16T08:04:22.790Z,46.5
2023-06-16T08:14:45.289Z,44.4
2023-06-16T08:19:41.644Z,43.5
2023-06-16T08:24:58.077Z,42.5
2023-06-16T08:30:04.406Z,42.2
2023-06-16T08:35:00.789Z,41.4
2023-06-16T08:40:17.718Z,40.5
2023-06-16T08:45:23.772Z,39.8
2023-06-16T08:50:29.297Z,39.2
2023-06-16T08:55:37.012Z,38.6
2023-06-16T09:00:43.177Z,37.5
2023-06-16T09:05:49.551Z,37.4
2023-06-16T09:10:55.953Z,37.3
2023-06-16T09:16:02.422Z,36.2
2023-06-16T09:21:08.771Z,35.3
2023-06-16T09:26:15.322Z,35.6
2023-06-16T09:31:41.786Z,35.2
2023-06-16T09:41:34.675Z,34.6
2023-06-16T09:46:40.905Z,34.4
2023-06-16T09:51:37.258Z,34.6
2023-06-16T09:56:43.692Z,34.0
2023-06-16T10:02:00.110Z,33.8
2023-06-16T10:06:56.448Z,33.1
2023-06-16T10:12:37.182Z,34.4
2023-06-16T10:17:39.546Z,33.2
2023-06-16T10:22:25.828Z,33.6
2023-06-16T10:27:22.220Z,33.5
2023-06-16T10:33:06.338Z,33.0
2023-06-16T10:37:48.686Z,32.7
2023-06-16T10:42:55.036Z,33.0
2023-06-16T10:48:21.649Z,32.3
2023-06-16T10:53:31.032Z,32.6
2023-06-16T11:13:53.669Z,31.8
2023-06-16T11:19:00.144Z,31.7
2023-06-16T11:24:29.636Z,30.9
2023-06-16T11:29:12.850Z,31.6
2023-06-16T11:34:38.479Z,31.0
2023-06-16T11:44:19.862Z,31.4
2023-06-16T11:49:28.799Z,30.7
2023-06-16T11:54:32.655Z,31.5
2023-06-16T11:59:40.097Z,31.4
2023-06-16T12:04:45.556Z,31.5
2023-06-16T12:09:52.866Z,32.2
2023-06-16T12:20:25.747Z,31.4
2023-06-16T12:25:32.177Z,31.1
2023-06-16T12:30:19.603Z,33.5
2023-06-16T12:35:25.184Z,33.4
2023-06-16T12:40:45.587Z,33.8
2023-06-16T12:45:37.961Z,34.0
2023-06-16T12:50:44.341Z,34.0
2023-06-16T12:55:50.707Z,33.8
2023-06-16T13:00:57.123Z,33.9
2023-06-16T13:11:00.152Z,34.1
2023-06-16T13:16:16.585Z,33.6
2023-06-16T13:21:43.024Z,34.5
2023-06-16T13:26:29.381Z,34.9
2023-06-16T13:31:35.826Z,35.0
2023-06-16T13:36:42.154Z,34.8
2023-06-16T13:41:48.795Z,35.1
2023-06-16T13:57:08.107Z,34.7
2023-06-16T14:02:04.543Z,34.8
2023-06-16T14:12:27.256Z,35.1
2023-06-16T14:22:40.018Z,35.2
2023-06-16T14:32:52.888Z,34.8
2023-06-16T14:37:59.143Z,35.1
2023-06-16T14:43:05.555Z,35.0
2023-06-16T14:53:32.449Z,34.9
2023-06-16T15:03:31.439Z,35.4
2023-06-16T15:08:27.689Z,35.9
2023-06-16T15:13:44.136Z,36.1
2023-06-16T15:18:50.515Z,36.5
2023-06-16T15:23:56.010Z,36.8
2023-06-16T15:29:03.289Z,37.1
2023-06-16T15:33:59.789Z,37.2
2023-06-16T15:39:16.260Z,37.4
2023-06-16T15:44:12.624Z,37.4
2023-06-16T15:49:29.035Z,37.7
2023-06-16T15:54:35.394Z,37.9
2023-06-16T15:59:41.814Z,38.1
2023-06-16T16:04:51.795Z,38.2
2023-06-16T16:09:57.133Z,38.6
2023-06-16T16:15:05.778Z,38.7
2023-06-16T16:25:17.535Z,39.1
2023-06-16T16:30:28.095Z,39.3
2023-06-16T16:35:30.410Z,39.2
2023-06-16T16:40:36.748Z,39.3
2023-06-16T16:56:16.053Z,39.8
2023-06-16T17:01:02.484Z,40.1
2023-06-16T17:07:06.433Z,40.2
2023-06-16T17:11:19.330Z,40.2
2023-06-16T17:16:21.674Z,40.6
2023-06-16T17:21:52.050Z,40.8
2023-06-16T17:26:24.418Z,41.7
2023-06-16T17:32:57.414Z,40.9
2023-06-16T17:38:02.317Z,41.2
2023-06-16T17:43:52.948Z,41.3
2023-06-16T17:48:15.206Z,41.5
2023-06-16T17:53:21.582Z,41.4
2023-06-16T18:03:48.401Z,41.9
2023-06-16T18:08:40.726Z,42.2
2023-06-16T18:13:47.118Z,42.2
2023-06-16T18:18:43.474Z,42.6
2023-06-16T18:23:59.960Z,42.7
2023-06-16T18:29:06.308Z,43.1
2023-06-16T18:34:12.674Z,43.2
2023-06-16T18:40:03.194Z,43.4
2023-06-16T18:44:25.480Z,43.3
2023-06-16T18:49:21.926Z,43.2
2023-06-16T18:54:38.407Z,43.2
2023-06-16T18:59:48.846Z,43.1
2023-06-16T19:04:51.177Z,43.0
2023-06-16T19:09:47.545Z,43.2
2023-06-16T19:15:28.051Z,43.0
2023-06-16T19:20:00.400Z,43.0
2023-06-16T19:25:16.801Z,43.2
2023-06-16T19:35:29.831Z,43.6
2023-06-16T19:40:36.354Z,43.9
2023-06-16T19:51:13.388Z,44.4
2023-06-16T19:55:54.690Z,44.6
2023-06-16T20:01:22.697Z,44.7
2023-06-16T20:07:23.789Z,45.0
2023-06-16T20:13:07.275Z,45.1
2023-06-16T20:17:43.989Z,45.6
2023-06-16T20:24:05.333Z,45.7
2023-06-16T20:29:09.600Z,45.8
2023-06-16T20:34:57.971Z,46.0
2023-06-16T20:41:04.187Z,46.1
2023-06-16T20:44:40.978Z,46.2
2023-06-16T20:55:20.762Z,46.6
2023-06-16T21:00:05.029Z,46.8
2023-06-16T21:05:10.489Z,47.0
2023-06-16T21:10:18.207Z,47.2
2023-06-16T21:15:24.226Z,47.0
2023-06-16T21:20:29.716Z,47.3
2023-06-16T21:25:37.173Z,47.4
2023-06-16T21:31:07.747Z,47.6
2023-06-16T21:36:31.268Z,47.7
2023-06-16T21:40:56.158Z,48.0
2023-06-16T21:46:27.637Z,48.1
2023-06-16T21:56:16.404Z,48.5
2023-06-16T22:01:22.767Z,48.5
2023-06-16T22:06:29.177Z,48.8
2023-06-16T22:11:35.561Z,48.7
2023-06-16T22:27:11.545Z,49.1
2023-06-16T22:32:01.215Z,49.4
2023-06-16T22:37:07.660Z,49.5
2023-06-16T22:42:14.025Z,49.5
2023-06-16T22:47:40.478Z,49.8
2023-06-16T23:07:46.193Z,50.2
2023-06-16T23:12:52.681Z,50.3
2023-06-16T23:18:38.108Z,50.6
2023-06-16T23:23:04.529Z,50.5
2023-06-16T23:28:11.890Z,50.9
2023-06-16T23:33:38.324Z,50.9
2023-06-16T23:38:24.694Z,50.8
2023-06-16T23:43:51.102Z,51.1
2023-06-16T23:48:37.418Z,51.5
2023-06-16T23:53:43.911Z,51.9
